Time;durP1;ratioP1;P1;durP2;ratioP2;P2;SDS_P1;SDS_P2;PMS_P1;PMS_P2;Temp;Humidity;BMP_temperature;BMP_pressure;BME280_temperature;BME280_humidity;BME280_pressure;Samples;Min_cycle;Max_cycle;Signal;HPM_P1;HPM_P2
2021/01/12 00:00:13;;;;;;;44.30;24.03;;;-2.90;99.90;;;;;;5013510;28;20179;-77
2021/01/12 00:02:42;;;;;;;49.77;25.93;;;-2.80;99.90;;;;;;5015227;28;20195;-75
2021/01/12 00:05:08;;;;;;;46.53;24.87;;;-2.80;99.90;;;;;;4997413;28;20171;-75
2021/01/12 00:07:34;;;;;;;42.90;24.53;;;-2.80;99.90;;;;;;5014727;28;20197;-75
2021/01/12 00:10:00;;;;;;;45.27;25.63;;;-2.70;99.90;;;;;;5014827;28;20211;-77
2021/01/12 00:12:30;;;;;;;50.87;25.63;;;-2.80;99.90;;;;;;5014820;28;20270;-77
2021/01/12 00:14:56;;;;;;;46.50;25.30;;;-2.80;99.90;;;;;;5014549;28;20200;-77
2021/01/12 00:17:22;;;;;;;48.40;26.73;;;-2.80;99.90;;;;;;5014619;28;20568;-77
2021/01/12 00:19:48;;;;;;;47.37;25.97;;;-2.80;99.90;;;;;;5013224;28;20176;-75
2021/01/12 00:22:16;;;;;;;43.50;24.43;;;-2.80;99.90;;;;;;5014329;28;20554;-74
2021/01/12 00:24:43;;;;;;;48.27;25.43;;;-2.80;99.90;;;;;;4997089;28;20206;-77
2021/01/12 00:27:09;;;;;;;42.23;24.47;;;-2.70;99.90;;;;;;5014380;28;20562;-77
2021/01/12 00:29:35;;;;;;;44.33;24.83;;;-2.70;99.90;;;;;;5014544;28;20183;-77
2021/01/12 00:32:01;;;;;;;44.37;25.00;;;-2.70;99.90;;;;;;5013944;28;20203;-77
2021/01/12 00:34:26;;;;;;;51.33;26.70;;;-2.70;99.90;;;;;;5014176;28;20175;-77
2021/01/12 00:36:53;;;;;;;44.10;25.20;;;-2.70;99.90;;;;;;5014167;28;20199;-77
2021/01/12 00:39:20;;;;;;;46.83;25.17;;;-2.70;99.90;;;;;;5013989;28;20521;-77
2021/01/12 00:41:55;;;;;;;40.60;23.70;;;-2.80;99.90;;;;;;5014362;28;20259;-77
2021/01/12 00:44:22;;;;;;;43.70;25.20;;;-2.80;99.90;;;;;;5014227;28;20523;-77
2021/01/12 00:46:49;;;;;;;49.17;25.43;;;-2.80;99.90;;;;;;5014119;28;20179;-77
2021/01/12 00:49:20;;;;;;;44.70;25.83;;;-2.80;99.90;;;;;;5014171;28;20179;-77
2021/01/12 00:51:47;;;;;;;48.00;26.23;;;-2.80;99.90;;;;;;5011438;28;20190;-75
2021/01/12 00:54:18;;;;;;;48.07;26.80;;;-2.90;99.90;;;;;;5013887;28;20171;-75
2021/01/12 00:56:44;;;;;;;46.30;26.43;;;-2.80;99.90;;;;;;5013762;28;20171;-77
2021/01/12 00:59:10;;;;;;;48.80;25.87;;;-2.70;99.90;;;;;;5013800;28;20179;-76
2021/01/12 01:01:39;;;;;;;45.60;27.10;;;-2.80;99.90;;;;;;5012421;28;20167;-77
2021/01/12 01:04:09;;;;;;;45.33;26.23;;;-2.80;99.90;;;;;;5016445;28;20194;-74
2021/01/12 01:06:35;;;;;;;43.20;24.87;;;-2.80;99.90;;;;;;5012222;28;20171;-75
2021/01/12 01:09:01;;;;;;;45.87;25.50;;;-2.80;99.90;;;;;;5013693;28;20175;-77
2021/01/12 01:11:26;;;;;;;45.23;26.40;;;-2.80;99.90;;;;;;5013539;28;20202;-77
2021/01/12 01:13:52;;;;;;;44.30;25.07;;;-2.80;99.90;;;;;;5013537;28;20733;-75
2021/01/12 01:16:19;;;;;;;44.70;26.07;;;-2.80;99.90;;;;;;5012217;28;20263;-74
2021/01/12 01:18:45;;;;;;;45.97;26.13;;;-2.80;99.90;;;;;;4995861;28;20621;-74
2021/01/12 01:21:12;;;;;;;46.87;26.50;;;-2.80;99.90;;;;;;5013829;28;20184;-75
2021/01/12 01:23:38;;;;;;;47.60;26.10;;;-2.80;99.90;;;;;;5015971;28;20168;-74
2021/01/12 01:26:04;;;;;;;42.60;25.53;;;-2.80;99.90;;;;;;5013469;28;20177;-75
2021/01/12 01:28:29;;;;;;;40.03;23.07;;;-2.90;99.90;;;;;;5013378;28;20192;-77
2021/01/12 01:30:55;;;;;;;45.17;26.40;;;-2.80;99.90;;;;;;5013511;28;20194;-75
2021/01/12 01:33:21;;;;;;;41.63;24.70;;;-2.80;99.90;;;;;;5013393;28;20226;-77
2021/01/12 01:35:48;;;;;;;45.97;26.30;;;-2.80;99.90;;;;;;5013522;28;20183;-77
2021/01/12 01:38:14;;;;;;;45.80;26.40;;;-2.80;99.90;;;;;;5013582;28;20622;-74
2021/01/12 01:40:40;;;;;;;45.17;25.40;;;-2.80;99.90;;;;;;5013159;28;20185;-77
2021/01/12 01:43:06;;;;;;;44.30;25.83;;;-2.80;99.90;;;;;;5014308;28;20188;-74
2021/01/12 01:45:32;;;;;;;47.10;26.80;;;-2.80;99.90;;;;;;5016057;28;20175;-77
2021/01/12 01:48:02;;;;;;;47.47;26.03;;;-2.80;99.90;;;;;;5017138;28;20198;-74
2021/01/12 01:50:28;;;;;;;44.60;26.17;;;-2.80;99.90;;;;;;5017201;28;20634;-76
2021/01/12 01:52:55;;;;;;;52.37;26.43;;;-2.80;99.90;;;;;;5015848;28;20224;-77
2021/01/12 01:55:22;;;;;;;46.83;25.83;;;-2.80;99.90;;;;;;5017192;28;20186;-77
2021/01/12 01:57:48;;;;;;;47.07;25.57;;;-2.80;99.90;;;;;;5016715;28;20224;-77
2021/01/12 02:00:18;;;;;;;49.47;26.57;;;-2.80;99.90;;;;;;5017026;28;20175;-77
2021/01/12 02:03:04;;;;;;;45.07;25.60;;;-2.80;99.90;;;;;;5017215;28;20225;-77
2021/01/12 02:05:32;;;;;;;42.87;24.70;;;-2.80;99.90;;;;;;5016672;28;20188;-76
2021/01/12 02:08:05;;;;;;;47.67;25.93;;;-2.70;99.90;;;;;;5016950;28;20687;-77
2021/01/12 02:10:35;;;;;;;45.90;26.67;;;-2.70;99.90;;;;;;5017181;28;20181;-77
2021/01/12 02:13:03;;;;;;;46.20;25.83;;;-2.80;99.90;;;;;;5015678;28;20179;-77
2021/01/12 02:15:29;;;;;;;48.20;26.10;;;-2.80;99.90;;;;;;5016740;28;20626;-77
2021/01/12 02:17:56;;;;;;;49.97;26.00;;;-2.80;99.90;;;;;;5016693;28;20195;-77
2021/01/12 02:20:26;;;;;;;51.73;27.03;;;-2.80;99.90;;;;;;5016642;28;20175;-77
2021/01/12 02:23:16;;;;;;;46.13;25.47;;;-2.70;99.90;;;;;;5017039;28;20174;-77
2021/01/12 02:25:44;;;;;;;46.07;25.70;;;-2.70;99.90;;;;;;5016548;28;20635;-77
2021/01/12 02:28:12;;;;;;;44.07;25.37;;;-2.70;99.90;;;;;;5016670;28;20398;-77
2021/01/12 02:30:38;;;;;;;56.20;26.90;;;-2.70;99.90;;;;;;5015209;28;20686;-77
2021/01/12 02:33:05;;;;;;;47.07;26.20;;;-2.70;99.90;;;;;;5016754;28;20187;-76
2021/01/12 02:35:35;;;;;;;46.90;25.70;;;-2.70;99.90;;;;;;5016548;28;20194;-76
2021/01/12 02:38:03;;;;;;;46.10;25.27;;;-2.70;99.90;;;;;;5016298;28;20655;-77
2021/01/12 02:40:29;;;;;;;47.03;25.07;;;-2.70;99.90;;;;;;5016396;28;20179;-77
2021/01/12 02:42:55;;;;;;;48.67;26.13;;;-2.70;99.90;;;;;;5016516;28;20187;-77
2021/01/12 02:45:21;;;;;;;48.67;25.30;;;-2.60;99.90;;;;;;5016259;28;20179;-77
2021/01/12 02:47:47;;;;;;;50.13;26.00;;;-2.60;99.90;;;;;;5016387;28;20225;-77
2021/01/12 02:50:15;;;;;;;49.03;25.17;;;-2.70;99.90;;;;;;5016437;28;20230;-77
2021/01/12 02:52:46;;;;;;;47.43;26.60;;;-2.70;99.90;;;;;;5013644;28;20225;-77
2021/01/12 02:55:13;;;;;;;47.27;26.37;;;-2.70;99.90;;;;;;5011891;28;20179;-76
2021/01/12 02:57:40;;;;;;;43.53;25.03;;;-2.80;99.90;;;;;;5013550;28;20751;-77
2021/01/12 03:00:08;;;;;;;46.13;25.57;;;-2.80;99.90;;;;;;5015014;28;20638;-77
2021/01/12 03:02:34;;;;;;;44.20;24.13;;;-2.70;99.90;;;;;;5014742;28;20180;-77
2021/01/12 03:05:00;;;;;;;44.83;25.10;;;-2.70;99.90;;;;;;5015860;28;20176;-77
2021/01/12 03:07:25;;;;;;;48.70;25.67;;;-2.60;99.90;;;;;;5015077;28;20261;-77
2021/01/12 03:09:51;;;;;;;51.00;25.77;;;-2.60;99.90;;;;;;5014556;28;20688;-77
2021/01/12 03:12:18;;;;;;;45.17;25.30;;;-2.60;99.90;;;;;;5015030;28;20197;-77
2021/01/12 03:14:45;;;;;;;43.90;24.63;;;-2.50;99.90;;;;;;5015944;28;20282;-77
2021/01/12 03:17:11;;;;;;;42.73;24.27;;;-2.50;99.90;;;;;;5014531;28;20585;-77
2021/01/12 03:19:37;;;;;;;42.77;24.23;;;-2.50;99.90;;;;;;5015626;28;20171;-77
2021/01/12 03:22:03;;;;;;;47.43;24.63;;;-2.50;99.90;;;;;;5015930;28;20184;-77
2021/01/12 03:24:29;;;;;;;43.67;24.20;;;-2.50;99.90;;;;;;5024128;28;20263;-77
2021/01/12 03:26:55;;;;;;;43.77;24.53;;;-2.50;99.90;;;;;;5015709;28;20265;-74
2021/01/12 03:29:21;;;;;;;44.80;24.30;;;-2.40;99.90;;;;;;5015379;28;20190;-77
2021/01/12 03:31:47;;;;;;;46.67;25.80;;;-2.40;99.90;;;;;;5015572;28;20202;-77
2021/01/12 03:34:13;;;;;;;50.53;25.47;;;-2.40;99.90;;;;;;5015519;28;20179;-77
2021/01/12 03:36:40;;;;;;;45.43;24.77;;;-2.40;99.90;;;;;;5015476;28;20179;-77
2021/01/12 03:39:06;;;;;;;46.53;26.10;;;-2.40;99.90;;;;;;5015177;28;20175;-77
2021/01/12 03:41:32;;;;;;;50.83;27.23;;;-2.40;99.90;;;;;;5013933;28;20266;-76
2021/01/12 03:44:00;;;;;;;45.37;25.93;;;-2.40;99.90;;;;;;5015037;28;20266;-77
2021/01/12 03:46:26;;;;;;;45.47;25.37;;;-2.40;99.90;;;;;;5013865;28;20209;-77
2021/01/12 03:48:52;;;;;;;45.70;25.50;;;-2.40;99.90;;;;;;5013714;28;20669;-77
2021/01/12 03:51:23;;;;;;;49.97;25.40;;;-2.30;99.90;;;;;;5015122;28;20249;-77
2021/01/12 03:53:49;;;;;;;45.30;25.17;;;-2.30;99.90;;;;;;5014923;28;20179;-77
2021/01/12 03:56:15;;;;;;;46.97;25.50;;;-2.30;99.90;;;;;;5015139;28;20255;-77
2021/01/12 03:58:41;;;;;;;45.63;25.20;;;-2.30;99.90;;;;;;5014709;28;20253;-77
2021/01/12 04:01:11;;;;;;;45.30;23.70;;;-2.30;99.90;;;;;;5014844;28;20294;-77
2021/01/12 04:03:38;;;;;;;50.17;26.67;;;-2.30;99.90;;;;;;5015082;28;20207;-77
2021/01/12 04:06:13;;;;;;;49.77;26.60;;;-2.30;99.90;;;;;;5014416;28;20213;-77
2021/01/12 04:08:41;;;;;;;50.73;26.20;;;-2.30;99.90;;;;;;5014589;28;20205;-77
2021/01/12 04:11:06;;;;;;;54.33;27.23;;;-2.30;99.90;;;;;;5014630;28;20206;-77
2021/01/12 04:13:32;;;;;;;49.17;26.07;;;-2.30;99.90;;;;;;5014558;28;20179;-76
2021/01/12 04:15:58;;;;;;;50.10;23.40;;;-2.30;99.90;;;;;;5014804;28;20528;-77
2021/01/12 04:18:24;;;;;;;50.73;27.97;;;-2.30;99.90;;;;;;5014388;28;20210;-77
2021/01/12 04:20:49;;;;;;;52.80;28.77;;;-2.30;99.90;;;;;;5014398;28;20179;-77
2021/01/12 04:23:15;;;;;;;52.00;26.80;;;-2.30;99.90;;;;;;5014391;28;20661;-77
2021/01/12 04:25:41;;;;;;;51.30;26.87;;;-2.20;99.90;;;;;;5013085;28;20278;-77
2021/01/12 04:28:07;;;;;;;50.93;26.63;;;-2.20;99.90;;;;;;5014526;28;20290;-77
2021/01/12 04:30:33;;;;;;;47.17;26.57;;;-2.20;99.90;;;;;;5014143;28;20270;-77
2021/01/12 04:32:58;;;;;;;53.03;27.20;;;-2.20;99.90;;;;;;5014154;28;20175;-77
2021/01/12 04:35:24;;;;;;;49.23;26.60;;;-2.20;99.90;;;;;;5014278;28;20179;-77
2021/01/12 04:37:50;;;;;;;50.57;25.67;;;-2.10;99.90;;;;;;5014028;28;20192;-77
2021/01/12 04:40:15;;;;;;;43.77;25.27;;;-2.10;99.90;;;;;;5014270;28;20214;-77
2021/01/12 04:42:42;;;;;;;46.30;25.53;;;-2.10;99.90;;;;;;5013980;28;20175;-77
2021/01/12 04:45:09;;;;;;;46.67;26.77;;;-2.00;99.90;;;;;;5014335;28;20180;-77
2021/01/12 04:47:34;;;;;;;49.63;26.37;;;-2.00;99.90;;;;;;5014532;28;20211;-77
2021/01/12 04:50:04;;;;;;;51.00;27.57;;;-2.00;99.90;;;;;;5015198;28;20176;-77
2021/01/12 04:52:41;;;;;;;47.07;26.37;;;-2.00;99.90;;;;;;5014072;28;20740;-75
2021/01/12 04:55:07;;;;;;;45.00;26.27;;;-1.90;99.90;;;;;;5013065;28;20544;-77
2021/01/12 04:57:33;;;;;;;47.67;26.47;;;-1.80;99.90;;;;;;5032808;22;20237;-76
2021/01/12 04:59:59;;;;;;;46.93;26.60;;;-1.70;99.90;;;;;;5020108;28;20179;-75
2021/01/12 05:02:25;;;;;;;46.73;25.10;;;-1.80;99.90;;;;;;5027454;28;20562;-76
2021/01/12 05:04:51;;;;;;;51.30;26.23;;;-1.90;99.90;;;;;;5033147;28;20205;-77
2021/01/12 05:07:16;;;;;;;51.33;26.10;;;-1.90;99.90;;;;;;5021395;28;20202;-76
2021/01/12 05:09:43;;;;;;;50.77;26.73;;;-1.90;99.90;;;;;;5012115;28;20179;-77
2021/01/12 05:12:12;;;;;;;51.67;27.77;;;-1.90;99.90;;;;;;5013312;28;20222;-75
2021/01/12 05:14:40;;;;;;;54.03;27.10;;;-1.90;99.90;;;;;;5013773;28;20180;-76
2021/01/12 05:17:08;;;;;;;53.73;27.20;;;-1.90;99.90;;;;;;5012568;28;20167;-76
2021/01/12 05:19:39;;;;;;;48.37;26.47;;;-1.80;99.90;;;;;;5015771;28;20171;-75
2021/01/12 05:22:05;;;;;;;50.47;27.07;;;-1.90;99.90;;;;;;5013790;28;20192;-76
2021/01/12 05:24:42;;;;;;;52.70;29.17;;;-1.80;99.90;;;;;;5013594;28;20750;-77
2021/01/12 05:27:09;;;;;;;46.77;25.83;;;-1.80;99.90;;;;;;5012740;28;20216;-75
2021/01/12 05:29:38;;;;;;;46.10;26.30;;;-1.80;99.90;;;;;;5011508;28;20191;-75
2021/01/12 05:32:10;;;;;;;46.00;25.77;;;-1.80;99.90;;;;;;5012191;28;20671;-76
2021/01/12 05:34:38;;;;;;;48.17;26.13;;;-1.70;99.90;;;;;;5007885;28;20179;-77
2021/01/12 05:37:08;;;;;;;52.40;28.33;;;-1.70;99.90;;;;;;5009393;28;20206;-76
2021/01/12 05:39:41;;;;;;;47.20;26.70;;;-1.70;99.90;;;;;;5007460;28;20173;-75
2021/01/12 05:42:09;;;;;;;49.07;26.73;;;-1.60;99.90;;;;;;5004432;28;20185;-77
2021/01/12 05:44:41;;;;;;;46.87;25.60;;;-1.60;99.90;;;;;;5028081;28;20203;-75
2021/01/12 05:47:14;;;;;;;53.60;26.77;;;-1.60;99.90;;;;;;5021094;28;20541;-76
2021/01/12 05:49:43;;;;;;;49.47;26.50;;;-1.60;99.90;;;;;;5020790;28;20201;-77
2021/01/12 05:52:10;;;;;;;48.70;27.07;;;-1.50;99.90;;;;;;5017576;28;20196;-77
2021/01/12 05:54:37;;;;;;;47.77;24.90;;;-1.50;99.90;;;;;;5012586;28;20179;-75
2021/01/12 05:57:05;;;;;;;49.17;26.30;;;-1.50;99.90;;;;;;4995419;28;20596;-76
2021/01/12 05:59:33;;;;;;;47.60;27.00;;;-1.40;99.90;;;;;;5008999;28;20219;-78
2021/01/12 06:02:02;;;;;;;46.93;26.13;;;-1.50;99.90;;;;;;5012763;28;20219;-75
2021/01/12 06:04:28;;;;;;;42.40;23.20;;;-1.50;99.90;;;;;;5024440;28;20183;-75
2021/01/12 06:06:56;;;;;;;51.53;27.23;;;-1.50;99.90;;;;;;5013396;28;20201;-75
2021/01/12 06:09:23;;;;;;;48.87;24.30;;;-1.60;99.90;;;;;;5013217;28;20210;-75
2021/01/12 06:11:52;;;;;;;48.97;25.77;;;-1.60;99.90;;;;;;5014422;28;20195;-76
2021/01/12 06:14:21;;;;;;;48.77;25.57;;;-1.60;99.90;;;;;;5014554;28;20186;-76
2021/01/12 06:16:48;;;;;;;48.37;25.17;;;-1.60;99.90;;;;;;5014375;28;20174;-77
2021/01/12 06:19:19;;;;;;;51.37;26.60;;;-1.60;99.90;;;;;;5013924;28;20748;-75
2021/01/12 06:21:54;;;;;;;49.27;26.33;;;-1.60;99.90;;;;;;5014385;28;20230;-75
2021/01/12 06:24:43;;;;;;;47.23;25.27;;;-1.60;99.90;;;;;;5014508;28;20683;-77
2021/01/12 06:27:30;;;;;;;52.63;26.37;;;-1.60;99.90;;;;;;5014577;28;20238;-76
2021/01/12 06:29:58;;;;;;;52.67;28.33;;;-1.50;99.90;;;;;;5016712;28;20657;-76
2021/01/12 06:32:26;;;;;;;38.13;20.23;;;-1.60;99.90;;;;;;5023168;28;20215;-76
2021/01/12 06:34:59;;;;;;;52.27;28.07;;;-1.60;99.90;;;;;;5023092;28;20317;-76
2021/01/12 06:37:27;;;;;;;51.40;28.20;;;-1.50;99.90;;;;;;5023868;28;20183;-76
2021/01/12 06:39:58;;;;;;;53.17;26.17;;;-1.30;99.90;;;;;;5023044;28;20181;-77
2021/01/12 06:42:29;;;;;;;51.83;25.33;;;-1.50;99.90;;;;;;5023351;28;20558;-76
2021/01/12 06:44:57;;;;;;;44.67;24.73;;;-1.50;99.90;;;;;;5023140;28;20712;-75
2021/01/12 06:47:28;;;;;;;50.17;26.07;;;-1.40;99.90;;;;;;5022578;28;20180;-75
2021/01/12 06:50:05;;;;;;;49.47;25.93;;;-1.40;99.90;;;;;;5025199;28;20208;-75
2021/01/12 06:52:37;;;;;;;52.43;26.40;;;-1.40;99.90;;;;;;5022646;28;20289;-75
2021/01/12 06:55:06;;;;;;;42.93;22.47;;;-1.40;99.90;;;;;;5022487;28;20179;-75
2021/01/12 06:57:33;;;;;;;40.23;20.80;;;-1.40;99.90;;;;;;5021207;28;20195;-74
2021/01/12 06:59:59;;;;;;;39.57;21.67;;;-1.40;99.90;;;;;;5022003;28;20261;-75
2021/01/12 07:02:30;;;;;;;52.40;27.37;;;-1.50;99.90;;;;;;5021630;28;20185;-75
2021/01/12 07:05:04;;;;;;;50.53;25.10;;;-1.40;99.90;;;;;;5021489;28;20194;-76
2021/01/12 07:07:33;;;;;;;51.83;26.60;;;-1.30;99.90;;;;;;5020861;28;20208;-75
2021/01/12 07:10:04;;;;;;;51.07;25.23;;;-1.40;99.90;;;;;;5034622;28;20260;-75
2021/01/12 07:12:30;;;;;;;47.60;24.77;;;-1.40;99.90;;;;;;5020691;28;20674;-74
2021/01/12 07:15:01;;;;;;;52.00;27.83;;;-1.40;99.90;;;;;;5019708;28;20179;-75
2021/01/12 07:17:27;;;;;;;47.77;23.10;;;-1.40;99.90;;;;;;5018456;28;20200;-75
2021/01/12 07:20:11;;;;;;;47.00;24.97;;;-1.40;99.90;;;;;;5020045;28;20175;-75
2021/01/12 07:22:50;;;;;;;48.03;25.10;;;-1.30;99.90;;;;;;5030499;28;20180;-75
2021/01/12 07:25:20;;;;;;;42.87;22.47;;;-1.30;99.90;;;;;;5020203;28;20223;-75
2021/01/12 07:28:00;;;;;;;49.37;23.80;;;-1.30;99.90;;;;;;5020052;28;20209;-75
2021/01/12 07:30:27;;;;;;;46.53;24.50;;;-1.30;99.90;;;;;;5018242;28;20175;-76
2021/01/12 07:33:02;;;;;;;40.07;20.50;;;-1.20;99.90;;;;;;5017330;28;20196;-74
2021/01/12 07:35:29;;;;;;;47.17;24.53;;;-1.20;99.90;;;;;;5018547;28;20232;-76
2021/01/12 07:37:55;;;;;;;38.27;20.83;;;-1.20;99.90;;;;;;5019449;28;20195;-74
2021/01/12 07:40:21;;;;;;;40.13;22.27;;;-1.20;99.90;;;;;;5019228;28;20172;-74
2021/01/12 07:42:47;;;;;;;39.47;21.87;;;-1.20;99.90;;;;;;5017484;28;20193;-74
2021/01/12 07:45:15;;;;;;;37.90;20.77;;;-1.10;99.90;;;;;;5019166;28;20204;-75
2021/01/12 07:47:40;;;;;;;38.57;21.83;;;-1.10;99.90;;;;;;5016697;28;20203;-74
2021/01/12 07:50:07;;;;;;;33.13;19.30;;;-1.00;99.90;;;;;;5017188;28;20233;-74
2021/01/12 07:52:33;;;;;;;36.57;19.60;;;-1.00;99.90;;;;;;5017856;28;20311;-74
2021/01/12 07:54:59;;;;;;;42.13;22.23;;;-1.00;99.90;;;;;;5017545;28;20199;-74
2021/01/12 07:57:27;;;;;;;38.40;21.27;;;-1.00;99.90;;;;;;5018920;28;20191;-74
2021/01/12 07:59:54;;;;;;;40.07;21.50;;;-0.90;99.90;;;;;;5017794;28;20263;-75
2021/01/12 08:02:23;;;;;;;29.57;16.53;;;-0.90;99.90;;;;;;5017964;28;20195;-73
2021/01/12 08:04:50;;;;;;;40.07;21.07;;;-0.90;99.90;;;;;;5017928;28;20595;-74
2021/01/12 08:07:25;;;;;;;40.20;21.93;;;-0.90;99.90;;;;;;5017108;28;20171;-74
2021/01/12 08:09:56;;;;;;;34.00;19.27;;;-0.80;99.90;;;;;;5018046;28;20172;-73
2021/01/12 08:12:22;;;;;;;32.00;18.73;;;-0.80;99.90;;;;;;5017271;28;20199;-73
2021/01/12 08:14:49;;;;;;;34.87;19.37;;;-0.80;99.90;;;;;;5017134;28;20184;-74
2021/01/12 08:17:31;;;;;;;40.20;20.83;;;-0.80;99.90;;;;;;5016475;28;20178;-73
2021/01/12 08:19:57;;;;;;;40.53;22.50;;;-0.80;99.90;;;;;;5017255;28;20539;-75
2021/01/12 08:22:23;;;;;;;38.47;20.87;;;-0.80;99.90;;;;;;5017334;28;20172;-75
2021/01/12 08:24:49;;;;;;;40.07;21.10;;;-0.70;99.90;;;;;;5017777;28;20581;-74
2021/01/12 08:27:19;;;;;;;42.07;21.53;;;-0.70;99.90;;;;;;5016463;28;20180;-75
2021/01/12 08:29:46;;;;;;;40.87;21.33;;;-0.70;99.90;;;;;;5016119;28;20543;-74
2021/01/12 08:32:14;;;;;;;39.10;20.80;;;-0.70;99.90;;;;;;5016007;28;20195;-73
2021/01/12 08:34:59;;;;;;;35.57;17.73;;;-0.60;99.90;;;;;;5015757;28;20169;-73
2021/01/12 08:37:26;;;;;;;35.77;20.87;;;-0.60;99.90;;;;;;5015788;28;20178;-73
2021/01/12 08:39:56;;;;;;;35.47;19.73;;;-0.60;99.90;;;;;;5016463;28;20238;-75
2021/01/12 08:42:23;;;;;;;36.77;19.93;;;-0.50;99.90;;;;;;5015537;28;20192;-74
2021/01/12 08:44:49;;;;;;;37.00;20.53;;;-0.50;99.90;;;;;;5015725;28;20685;-74
2021/01/12 08:47:25;;;;;;;39.37;21.00;;;-0.50;99.90;;;;;;5015906;28;20200;-75
2021/01/12 08:50:06;;;;;;;37.07;20.70;;;-0.50;99.90;;;;;;5015644;28;20164;-74
2021/01/12 08:52:32;;;;;;;34.63;19.67;;;-0.50;99.90;;;;;;5014739;28;20197;-73
2021/01/12 08:54:58;;;;;;;40.80;20.13;;;-0.50;99.90;;;;;;5017467;28;20174;-73
2021/01/12 08:57:24;;;;;;;39.40;21.87;;;-0.50;99.90;;;;;;5014774;28;20212;-73
2021/01/12 08:59:49;;;;;;;36.87;21.07;;;-0.50;99.90;;;;;;5014595;28;20226;-73
2021/01/12 09:02:21;;;;;;;37.00;20.77;;;-0.50;99.90;;;;;;5014643;28;20185;-73
2021/01/12 09:04:57;;;;;;;36.93;18.47;;;-0.40;99.90;;;;;;5014727;28;20250;-73
2021/01/12 09:07:23;;;;;;;35.10;20.70;;;-0.40;99.90;;;;;;5014499;28;20273;-72
2021/01/12 09:09:54;;;;;;;34.00;20.57;;;-0.40;99.90;;;;;;5014290;28;20193;-74
2021/01/12 09:12:20;;;;;;;39.90;21.37;;;-0.40;99.90;;;;;;5014414;28;20204;-74
2021/01/12 09:14:48;;;;;;;39.57;22.10;;;-0.30;99.90;;;;;;5014599;28;20227;-74
2021/01/12 09:17:21;;;;;;;36.97;19.60;;;-0.30;99.90;;;;;;5012821;28;20183;-73
2021/01/12 09:19:53;;;;;;;32.30;17.63;;;-0.20;99.90;;;;;;5016719;28;20182;-74
2021/01/12 09:22:20;;;;;;;38.50;20.93;;;-0.20;99.90;;;;;;5014259;28;20327;-74
2021/01/12 09:24:51;;;;;;;38.13;20.70;;;-0.30;99.90;;;;;;5014399;28;20190;-73
2021/01/12 09:27:31;;;;;;;35.70;19.47;;;-0.20;99.90;;;;;;5013882;28;20185;-72
2021/01/12 09:29:57;;;;;;;36.33;18.67;;;-0.20;99.90;;;;;;5014071;28;20189;-74
2021/01/12 09:32:29;;;;;;;37.27;18.80;;;-0.10;99.90;;;;;;5014110;28;20633;-75
2021/01/12 09:34:55;;;;;;;34.17;19.20;;;-0.10;99.90;;;;;;5014023;28;20550;-74
2021/01/12 09:37:21;;;;;;;37.67;20.63;;;0.00;99.90;;;;;;5014263;28;20182;-74
2021/01/12 09:39:59;;;;;;;33.43;19.63;;;0.00;99.90;;;;;;5014193;28;20180;-72
2021/01/12 09:42:27;;;;;;;34.70;19.43;;;0.00;99.90;;;;;;5013851;28;20217;-75
2021/01/12 09:44:55;;;;;;;25.30;14.40;;;0.10;99.90;;;;;;5014408;28;20175;-75
2021/01/12 09:47:21;;;;;;;35.73;20.73;;;0.10;99.90;;;;;;5013399;28;20264;-76
2021/01/12 09:49:47;;;;;;;36.10;19.97;;;0.20;99.90;;;;;;5013158;28;20641;-75
2021/01/12 09:52:13;;;;;;;33.00;18.93;;;0.20;99.90;;;;;;5014143;28;20229;-75
2021/01/12 09:54:45;;;;;;;35.60;18.40;;;0.20;99.90;;;;;;5014209;28;20253;-74
2021/01/12 09:57:14;;;;;;;30.27;17.90;;;0.30;99.90;;;;;;5013948;28;20184;-72
2021/01/12 09:59:41;;;;;;;31.77;18.07;;;0.30;99.90;;;;;;5013899;28;20192;-75
2021/01/12 10:02:09;;;;;;;34.10;18.43;;;0.40;99.90;;;;;;5018681;28;20174;-72
2021/01/12 10:04:35;;;;;;;37.03;19.63;;;0.50;99.90;;;;;;5018585;28;20528;-73
2021/01/12 10:07:01;;;;;;;31.93;18.47;;;0.60;99.90;;;;;;5017080;28;20229;-71
2021/01/12 10:09:28;;;;;;;30.93;17.90;;;0.70;99.90;;;;;;5015303;28;20284;-75
2021/01/12 10:11:54;;;;;;;33.60;18.10;;;0.80;99.90;;;;;;5013808;28;20584;-72
2021/01/12 10:14:22;;;;;;;30.57;17.03;;;0.90;99.90;;;;;;5016321;28;20182;-72
2021/01/12 10:16:48;;;;;;;28.00;16.97;;;0.90;99.90;;;;;;5015923;28;20185;-72
2021/01/12 10:19:14;;;;;;;34.47;16.40;;;1.00;99.90;;;;;;5015877;28;20199;-73
2021/01/12 10:21:40;;;;;;;24.83;16.10;;;1.00;99.90;;;;;;5015975;28;20175;-72
2021/01/12 10:24:06;;;;;;;27.43;16.93;;;1.10;99.90;;;;;;5016273;28;20198;-75
2021/01/12 10:26:32;;;;;;;28.77;15.97;;;1.10;99.90;;;;;;5017018;28;20190;-73
2021/01/12 10:28:59;;;;;;;25.57;15.87;;;1.20;99.90;;;;;;5016807;28;20623;-73
2021/01/12 10:31:26;;;;;;;24.10;13.80;;;1.20;99.90;;;;;;5017326;28;20537;-72
2021/01/12 10:33:52;;;;;;;24.67;15.20;;;1.10;99.90;;;;;;5016727;28;20272;-75
2021/01/12 10:36:20;;;;;;;22.83;13.60;;;1.10;99.90;;;;;;5016830;28;20175;-74
2021/01/12 10:38:47;;;;;;;22.63;12.77;;;1.10;99.90;;;;;;5015203;28;20252;-72
2021/01/12 10:41:13;;;;;;;21.20;13.33;;;1.10;99.90;;;;;;5016563;28;20725;-74
2021/01/12 10:43:39;;;;;;;23.93;13.33;;;1.00;99.90;;;;;;5015130;28;20662;-73
2021/01/12 10:46:05;;;;;;;20.13;12.77;;;1.00;99.90;;;;;;5016421;28;20258;-72
2021/01/12 10:48:31;;;;;;;20.13;12.47;;;1.00;99.90;;;;;;5016582;28;20206;-71
2021/01/12 10:50:57;;;;;;;20.57;13.13;;;1.00;99.90;;;;;;5016382;28;20238;-72
2021/01/12 10:53:23;;;;;;;23.60;13.37;;;1.00;99.90;;;;;;5016231;28;20256;-73
2021/01/12 10:55:52;;;;;;;23.90;13.10;;;1.00;99.90;;;;;;5016560;28;20186;-72
2021/01/12 10:58:18;;;;;;;19.80;11.50;;;0.90;99.90;;;;;;5050184;22;20275;-74
2021/01/12 11:00:46;;;;;;;22.83;11.87;;;0.90;99.90;;;;;;5035934;28;20183;-74
2021/01/12 11:03:12;;;;;;;23.03;12.77;;;0.90;99.90;;;;;;5017871;28;20224;-74
2021/01/12 11:05:38;;;;;;;18.47;12.10;;;0.80;99.90;;;;;;5036057;28;20182;-74
2021/01/12 11:08:03;;;;;;;23.30;14.13;;;0.90;99.90;;;;;;5012990;28;20213;-74
2021/01/12 11:10:30;;;;;;;20.73;12.47;;;0.80;99.90;;;;;;4998134;28;20274;-74
2021/01/12 11:12:59;;;;;;;25.30;14.40;;;0.80;99.90;;;;;;5015884;28;20198;-74
2021/01/12 11:15:26;;;;;;;22.17;12.90;;;0.90;99.90;;;;;;5014637;28;20167;-74
2021/01/12 11:17:52;;;;;;;21.93;13.07;;;0.90;99.90;;;;;;5015712;28;20221;-74
2021/01/12 11:20:18;;;;;;;24.87;13.70;;;0.80;99.90;;;;;;4998077;28;20638;-74
2021/01/12 11:22:46;;;;;;;17.47;9.87;;;0.90;99.90;;;;;;5015825;28;20189;-74
2021/01/12 11:25:12;;;;;;;21.57;12.30;;;0.80;99.90;;;;;;5015561;28;20183;-74
2021/01/12 11:27:39;;;;;;;21.67;12.73;;;0.80;99.90;;;;;;5018566;28;20261;-75
2021/01/12 11:30:06;;;;;;;18.20;12.40;;;0.90;99.90;;;;;;4997950;28;20201;-74
2021/01/12 11:32:33;;;;;;;20.20;12.70;;;0.90;99.90;;;;;;4997758;28;20205;-74
2021/01/12 11:35:01;;;;;;;18.67;11.43;;;0.90;99.90;;;;;;5015350;28;20229;-74
2021/01/12 11:37:29;;;;;;;19.27;11.90;;;0.90;99.90;;;;;;4997792;28;20183;-74
2021/01/12 11:39:58;;;;;;;19.87;11.87;;;0.90;99.90;;;;;;5015379;28;20174;-74
2021/01/12 11:42:24;;;;;;;19.27;12.37;;;0.90;99.90;;;;;;5015247;28;20191;-74
2021/01/12 11:44:50;;;;;;;22.33;13.00;;;0.90;99.90;;;;;;5015226;28;20188;-74
2021/01/12 11:47:16;;;;;;;19.97;12.17;;;0.90;99.90;;;;;;5015361;28;20178;-74
2021/01/12 11:49:43;;;;;;;24.03;14.00;;;0.90;99.90;;;;;;5014375;28;20225;-75
2021/01/12 11:52:10;;;;;;;21.27;10.27;;;0.90;99.90;;;;;;5013202;28;20216;-76
2021/01/12 11:54:36;;;;;;;23.40;13.23;;;0.90;99.90;;;;;;4997224;28;20818;-76
2021/01/12 11:57:05;;;;;;;19.67;11.87;;;0.90;99.90;;;;;;5013751;28;20282;-76
2021/01/12 11:59:31;;;;;;;19.73;10.90;;;0.80;99.90;;;;;;4995610;28;20217;-76
2021/01/12 12:01:57;;;;;;;17.50;11.37;;;0.80;99.90;;;;;;5013439;28;20186;-76
2021/01/12 12:04:25;;;;;;;22.80;10.53;;;0.80;99.90;;;;;;5014228;28;20195;-77
2021/01/12 12:06:53;;;;;;;27.60;13.93;;;0.70;99.90;;;;;;5014570;28;20193;-75
2021/01/12 12:09:19;;;;;;;25.53;13.90;;;0.70;99.90;;;;;;4996573;28;20209;-76
2021/01/12 12:11:47;;;;;;;23.57;13.17;;;0.70;99.90;;;;;;5012913;28;20206;-75
2021/01/12 12:14:14;;;;;;;25.27;14.07;;;0.70;99.90;;;;;;4995250;28;20178;-76
2021/01/12 12:16:45;;;;;;;22.87;13.30;;;0.70;99.90;;;;;;5012735;28;20190;-77
2021/01/12 12:19:12;;;;;;;21.63;12.07;;;0.70;99.90;;;;;;5014462;28;20198;-76
2021/01/12 12:21:46;;;;;;;26.70;14.40;;;0.70;99.90;;;;;;5014565;28;20224;-76
2021/01/12 12:24:13;;;;;;;22.57;13.10;;;0.70;99.90;;;;;;5019745;28;20187;-76
2021/01/12 12:26:39;;;;;;;20.93;12.00;;;0.70;99.90;;;;;;5021832;28;20228;-76
2021/01/12 12:29:04;;;;;;;21.00;12.03;;;0.70;99.90;;;;;;4996299;28;20681;-76
2021/01/12 12:31:30;;;;;;;26.03;14.13;;;0.80;99.90;;;;;;5024210;23;20226;-76